createdAt,value
2023-02-23T00:01:41.762Z,26.63
2023-02-23T00:04:10.308Z,23.80
2023-02-23T00:06:38.933Z,26.67
2023-02-23T00:09:12.317Z,26.00
2023-02-23T00:11:40.258Z,26.47
2023-02-23T00:14:08.778Z,24.97
2023-02-23T00:16:37.391Z,23.93
2023-02-23T00:19:08.137Z,24.50
2023-02-23T00:21:36.750Z,26.43
2023-02-23T00:24:08.255Z,24.23
2023-02-23T00:26:39.428Z,27.37
2023-02-23T00:29:09.916Z,24.87
2023-02-23T00:31:38.772Z,23.70
2023-02-23T00:34:07.683Z,24.00
2023-02-23T00:36:36.725Z,26.77
2023-02-23T00:39:17.929Z,26.37
2023-02-23T00:41:47.447Z,25.70
2023-02-23T00:44:16.333Z,26.83
2023-02-23T00:46:45.720Z,26.30
2023-02-23T00:49:14.646Z,26.57
2023-02-23T00:51:42.688Z,25.07
2023-02-23T00:54:13.542Z,30.87
2023-02-23T00:56:42.040Z,25.47
2023-02-23T00:59:11.606Z,26.70
2023-02-23T01:01:41.893Z,26.20
2023-02-23T01:04:10.769Z,28.53
2023-02-23T01:06:39.564Z,26.00
2023-02-23T01:09:10.142Z,28.17
2023-02-23T01:11:38.225Z,31.10
2023-02-23T01:14:06.363Z,34.20
2023-02-23T01:16:38.825Z,30.93
2023-02-23T01:19:07.506Z,34.13
2023-02-23T01:21:37.524Z,30.93
2023-02-23T01:24:06.885Z,28.93
2023-02-23T01:26:36.254Z,28.83
2023-02-23T01:29:09.053Z,32.10
2023-02-23T01:31:39.803Z,30.07
2023-02-23T01:34:09.059Z,33.30
2023-02-23T01:36:39.652Z,36.03
2023-02-23T01:39:12.102Z,31.10
2023-02-23T01:41:42.396Z,33.10
2023-02-23T01:44:50.444Z,36.40
2023-02-23T01:47:20.368Z,31.57
2023-02-23T01:49:48.613Z,33.07
2023-02-23T01:52:18.798Z,37.77
2023-02-23T01:54:51.559Z,31.33
2023-02-23T01:57:24.865Z,29.90
2023-02-23T01:59:53.738Z,31.43
2023-02-23T02:02:33.366Z,32.97
2023-02-23T02:05:02.876Z,33.60
2023-02-23T02:07:35.173Z,29.03
2023-02-23T02:10:33.516Z,32.40
2023-02-23T02:13:05.882Z,35.93
2023-02-23T02:15:38.711Z,32.13
2023-02-23T02:18:18.837Z,33.20
2023-02-23T02:21:07.793Z,36.10
2023-02-23T02:24:18.728Z,36.73
2023-02-23T02:27:00.538Z,33.33
2023-02-23T02:29:59.121Z,33.83
2023-02-23T02:33:13.664Z,34.40
2023-02-23T02:36:11.258Z,35.03
2023-02-23T02:38:53.844Z,32.70
2023-02-23T02:41:35.519Z,34.67
2023-02-23T02:44:12.024Z,31.40
2023-02-23T02:46:43.352Z,34.37
2023-02-23T02:49:17.662Z,29.90
2023-02-23T02:51:50.008Z,31.13
2023-02-23T02:54:26.524Z,32.67
2023-02-23T02:56:57.703Z,30.73
2023-02-23T02:59:43.515Z,31.87
2023-02-23T03:02:34.013Z,31.20
2023-02-23T03:05:19.649Z,31.30
2023-02-23T03:08:17.511Z,30.67
2023-02-23T03:11:19.240Z,33.20
2023-02-23T03:14:15.246Z,31.83
2023-02-23T03:17:11.576Z,30.77
2023-02-23T03:20:06.821Z,30.23
2023-02-23T03:22:58.764Z,33.67
2023-02-23T03:25:50.790Z,30.47
2023-02-23T03:28:39.842Z,31.53
2023-02-23T03:31:33.450Z,32.10
2023-02-23T03:34:28.406Z,33.40
2023-02-23T03:37:20.508Z,37.07
2023-02-23T03:40:13.083Z,37.07
2023-02-23T03:43:01.557Z,38.33
2023-02-23T03:45:49.384Z,31.30
2023-02-23T03:48:38.583Z,34.97
2023-02-23T03:51:27.772Z,37.03
2023-02-23T03:54:21.000Z,36.17
2023-02-23T03:57:09.685Z,30.93
2023-02-23T03:59:58.903Z,34.93
2023-02-23T04:02:46.854Z,34.27
2023-02-23T04:05:37.731Z,34.90
2023-02-23T04:08:28.190Z,33.80
2023-02-23T04:11:26.227Z,35.00
2023-02-23T04:13:58.519Z,34.93
2023-02-23T04:16:25.555Z,35.73
2023-02-23T04:18:55.618Z,32.40
2023-02-23T04:21:23.593Z,32.17
2023-02-23T04:23:51.520Z,34.50
2023-02-23T04:26:19.444Z,35.23
2023-02-23T04:28:47.289Z,33.30
2023-02-23T04:31:16.377Z,33.53
2023-02-23T04:33:44.299Z,38.83
2023-02-23T04:36:13.720Z,35.57
2023-02-23T04:38:41.608Z,33.37
2023-02-23T04:41:09.620Z,34.70
2023-02-23T04:43:37.589Z,39.27
2023-02-23T04:46:05.834Z,36.37
2023-02-23T04:48:33.850Z,40.63
2023-02-23T04:51:01.722Z,36.17
2023-02-23T04:53:30.973Z,33.50
2023-02-23T04:55:59.000Z,36.23
2023-02-23T04:58:27.049Z,32.50
2023-02-23T05:00:54.955Z,32.63
2023-02-23T05:03:22.956Z,32.97
2023-02-23T05:05:50.884Z,34.70
2023-02-23T05:08:18.826Z,30.57
2023-02-23T05:10:48.752Z,33.03
2023-02-23T05:13:16.615Z,35.87
2023-02-23T05:15:44.620Z,32.23
2023-02-23T05:18:12.564Z,35.40
2023-02-23T05:20:44.823Z,36.47
2023-02-23T05:23:12.992Z,33.97
2023-02-23T05:25:41.393Z,36.10
2023-02-23T05:28:10.884Z,36.17
2023-02-23T05:30:38.879Z,35.47
2023-02-23T05:33:06.949Z,31.90
2023-02-23T05:35:35.656Z,29.03
2023-02-23T05:38:03.682Z,30.57
2023-02-23T05:40:32.294Z,29.73
2023-02-23T05:43:00.498Z,31.13
2023-02-23T05:45:30.231Z,32.83
2023-02-23T05:47:58.209Z,33.50
2023-02-23T05:50:26.935Z,29.00
2023-02-23T05:52:54.871Z,31.87
2023-02-23T05:55:22.837Z,27.93
2023-02-23T05:57:51.109Z,32.87
2023-02-23T06:00:19.680Z,30.50
2023-02-23T06:02:49.983Z,33.83
2023-02-23T06:05:17.942Z,34.30
2023-02-23T06:07:45.879Z,34.63
2023-02-23T06:10:14.057Z,33.60
2023-02-23T06:12:42.141Z,36.33
2023-02-23T06:15:10.769Z,37.07
2023-02-23T06:17:38.687Z,39.83
2023-02-23T06:20:08.759Z,35.43
2023-02-23T06:22:39.549Z,38.10
2023-02-23T06:25:12.550Z,38.23
2023-02-23T06:27:42.118Z,40.53
2023-02-23T06:30:11.301Z,38.20
2023-02-23T06:32:39.503Z,37.80
2023-02-23T06:35:09.713Z,33.90
2023-02-23T06:37:38.058Z,38.97
2023-02-23T06:40:07.419Z,36.73
2023-02-23T06:42:35.992Z,39.13
2023-02-23T06:45:04.025Z,36.33
2023-02-23T06:47:31.957Z,39.77
2023-02-23T06:50:01.999Z,31.67
2023-02-23T06:52:31.216Z,37.40
2023-02-23T06:54:59.129Z,38.07
2023-02-23T06:57:28.064Z,35.53
2023-02-23T06:59:55.999Z,34.63
2023-02-23T07:02:23.953Z,37.20
2023-02-23T07:04:51.927Z,41.93
2023-02-23T07:07:19.905Z,38.00
2023-02-23T07:09:51.378Z,35.13
2023-02-23T07:12:19.289Z,35.70
2023-02-23T07:14:47.214Z,37.93
2023-02-23T07:17:15.135Z,36.73
2023-02-23T07:19:43.037Z,40.90
2023-02-23T07:22:11.119Z,35.53
2023-02-23T07:24:39.712Z,34.27
2023-02-23T07:27:08.950Z,36.20
2023-02-23T07:29:37.286Z,32.93
2023-02-23T07:32:05.886Z,34.80
2023-02-23T07:34:33.872Z,32.37
2023-02-23T07:37:01.812Z,31.77
2023-02-23T07:39:31.043Z,33.40
2023-02-23T07:41:59.082Z,35.00
2023-02-23T07:44:28.538Z,33.93
2023-02-23T07:46:56.615Z,34.10
2023-02-23T07:49:25.407Z,30.80
2023-02-23T07:51:53.343Z,35.73
2023-02-23T07:54:22.027Z,32.50
2023-02-23T07:56:49.903Z,37.03
2023-02-23T07:59:17.838Z,32.13
2023-02-23T08:01:47.187Z,33.43
2023-02-23T08:04:15.142Z,32.63
2023-02-23T08:06:43.001Z,34.97
2023-02-23T08:09:11.999Z,34.30
2023-02-23T08:11:40.465Z,31.57
2023-02-23T08:14:10.495Z,35.13
2023-02-23T08:16:38.496Z,34.87
2023-02-23T08:19:07.813Z,39.77
2023-02-23T08:21:35.669Z,37.07
2023-02-23T08:24:03.546Z,32.00
2023-02-23T08:26:31.742Z,32.83
2023-02-23T08:28:59.638Z,35.80
2023-02-23T08:31:27.821Z,29.87
2023-02-23T08:33:55.812Z,32.93
2023-02-23T08:36:25.439Z,35.60
2023-02-23T08:38:54.230Z,33.80
2023-02-23T08:41:22.737Z,29.80
2023-02-23T08:43:50.623Z,32.07
2023-02-23T08:46:20.521Z,35.40
2023-02-23T08:48:48.514Z,31.67
2023-02-23T08:51:16.586Z,33.77
2023-02-23T08:53:45.922Z,34.10
2023-02-23T08:56:17.303Z,34.70
2023-02-23T08:58:45.423Z,30.10
2023-02-23T09:01:18.977Z,36.20
2023-02-23T09:03:47.191Z,31.13
2023-02-23T09:06:17.523Z,31.67
2023-02-23T09:08:47.183Z,31.73
2023-02-23T09:11:15.052Z,28.33
2023-02-23T09:13:42.994Z,34.40
2023-02-23T09:16:11.063Z,29.30
2023-02-23T09:18:39.563Z,29.20
2023-02-23T09:21:10.913Z,30.60
2023-02-23T09:23:39.187Z,34.80
2023-02-23T09:26:09.810Z,34.17
2023-02-23T09:28:38.658Z,34.53
2023-02-23T09:31:07.683Z,36.30
2023-02-23T09:33:35.709Z,35.70
2023-02-23T09:36:07.350Z,35.60
2023-02-23T09:38:35.424Z,35.67
2023-02-23T09:41:03.427Z,36.03
2023-02-23T09:43:42.522Z,40.53
2023-02-23T09:46:17.057Z,39.83
2023-02-23T09:48:45.047Z,35.13
2023-02-23T09:51:18.732Z,37.67
2023-02-23T09:53:50.923Z,37.33
2023-02-23T09:56:26.590Z,44.57
2023-02-23T09:58:55.851Z,41.73
2023-02-23T10:01:50.784Z,41.83
2023-02-23T10:04:23.342Z,40.20
2023-02-23T10:06:58.851Z,43.67
2023-02-23T10:09:39.113Z,44.30
2023-02-23T10:12:12.753Z,41.83
2023-02-23T10:14:59.517Z,43.23
2023-02-23T10:17:40.031Z,39.83
2023-02-23T10:20:18.274Z,38.43
2023-02-23T10:22:48.826Z,36.87
2023-02-23T10:25:22.553Z,35.07
2023-02-23T10:27:51.911Z,35.93
2023-02-23T10:30:25.090Z,33.53
2023-02-23T10:33:02.418Z,34.50
2023-02-23T10:35:32.070Z,36.43
2023-02-23T10:38:02.320Z,29.10
2023-02-23T10:40:33.071Z,31.10
2023-02-23T10:43:02.405Z,30.77
2023-02-23T10:45:38.472Z,29.33
2023-02-23T10:48:09.280Z,26.40
2023-02-23T10:50:41.401Z,24.47
2023-02-23T10:53:17.094Z,26.03
2023-02-23T10:55:47.079Z,23.63
2023-02-23T10:58:18.164Z,25.77
2023-02-23T11:00:59.094Z,23.87
2023-02-23T11:03:31.110Z,25.73
2023-02-23T11:05:59.698Z,23.67
2023-02-23T11:08:31.510Z,26.30
2023-02-23T11:11:06.291Z,28.10
2023-02-23T11:13:40.150Z,23.00
2023-02-23T11:16:13.872Z,23.87
2023-02-23T11:18:43.968Z,22.33
2023-02-23T11:21:22.392Z,27.40
2023-02-23T11:23:52.602Z,25.47
2023-02-23T11:26:25.094Z,26.90
2023-02-23T11:28:56.990Z,23.77
2023-02-23T11:31:32.094Z,31.77
2023-02-23T11:34:00.747Z,34.57
2023-02-23T11:36:30.641Z,35.43
2023-02-23T11:39:06.261Z,34.57
2023-02-23T11:41:37.205Z,37.13
2023-02-23T11:44:06.467Z,32.60
2023-02-23T11:46:39.140Z,39.67
2023-02-23T11:49:09.203Z,34.23
2023-02-23T11:51:39.522Z,34.13
2023-02-23T11:54:18.196Z,35.77
2023-02-23T11:56:52.140Z,37.90
2023-02-23T11:59:29.123Z,32.73
2023-02-23T12:02:05.341Z,32.33
2023-02-23T12:04:36.983Z,34.47
2023-02-23T12:07:31.542Z,39.57
2023-02-23T12:10:06.374Z,33.80
2023-02-23T12:12:47.198Z,39.63
2023-02-23T12:15:25.262Z,38.47
2023-02-23T12:17:59.027Z,37.57
2023-02-23T12:20:31.309Z,36.47
2023-02-23T12:23:03.146Z,38.00
2023-02-23T12:25:37.176Z,42.53
2023-02-23T12:28:18.796Z,39.30
2023-02-23T12:30:52.085Z,36.70
2023-02-23T12:33:30.184Z,37.33
2023-02-23T12:36:02.913Z,41.57
2023-02-23T12:38:42.615Z,38.03
2023-02-23T12:41:14.279Z,36.73
2023-02-23T12:43:49.274Z,39.20
2023-02-23T12:46:22.851Z,39.03
2023-02-23T12:49:02.227Z,41.10
2023-02-23T12:51:35.477Z,42.67
2023-02-23T12:54:03.904Z,39.33
2023-02-23T12:56:43.794Z,37.37
2023-02-23T12:59:25.441Z,43.70
2023-02-23T13:01:56.668Z,37.60
2023-02-23T13:04:45.795Z,38.50
2023-02-23T13:07:21.376Z,36.50
2023-02-23T13:10:02.786Z,34.77
2023-02-23T13:12:49.180Z,36.70
2023-02-23T13:15:26.796Z,36.00
2023-02-23T13:18:01.496Z,38.13
2023-02-23T13:20:38.136Z,38.40
2023-02-23T13:23:15.983Z,34.17
2023-02-23T13:25:53.994Z,35.77
2023-02-23T13:28:29.785Z,34.40
2023-02-23T13:30:58.047Z,36.60
2023-02-23T13:33:41.923Z,36.97
2023-02-23T13:36:13.810Z,39.47
2023-02-23T13:38:50.948Z,40.40
2023-02-23T13:41:31.485Z,37.13
2023-02-23T13:44:08.486Z,37.20
2023-02-23T13:46:47.938Z,40.33
2023-02-23T13:49:25.404Z,36.93
2023-02-23T13:52:00.189Z,39.70
2023-02-23T13:54:34.668Z,44.90
2023-02-23T13:57:05.596Z,38.13
2023-02-23T13:59:42.404Z,40.17
2023-02-23T14:02:38.701Z,37.93
2023-02-23T14:05:16.756Z,37.67
2023-02-23T14:07:49.845Z,37.23
2023-02-23T14:10:22.752Z,32.30
2023-02-23T14:13:24.360Z,33.20
2023-02-23T14:16:14.776Z,27.43
2023-02-23T14:19:05.448Z,27.23
2023-02-23T14:21:36.141Z,31.13
2023-02-23T14:24:17.435Z,28.13
2023-02-23T14:27:38.473Z,27.97
2023-02-23T14:30:16.501Z,25.97
2023-02-23T14:32:46.695Z,26.97
2023-02-23T14:35:44.457Z,28.93
2023-02-23T14:38:24.893Z,26.67
2023-02-23T14:40:55.592Z,25.07
2023-02-23T14:43:45.007Z,26.47
2023-02-23T14:46:19.488Z,23.50
2023-02-23T14:48:59.839Z,24.83
2023-02-23T14:51:37.155Z,26.93
2023-02-23T14:54:22.508Z,25.20
2023-02-23T14:56:54.828Z,25.83
2023-02-23T14:59:24.563Z,24.13
2023-02-23T15:01:53.594Z,24.93
2023-02-23T15:04:23.925Z,30.50
2023-02-23T15:06:56.213Z,23.30
2023-02-23T15:09:33.349Z,28.13
2023-02-23T15:12:17.009Z,24.00
2023-02-23T15:14:45.818Z,24.43
2023-02-23T15:17:21.494Z,23.17
2023-02-23T15:20:06.034Z,24.57
2023-02-23T15:22:42.661Z,24.10
2023-02-23T15:25:17.581Z,23.03
2023-02-23T15:27:47.697Z,23.87
2023-02-23T15:30:22.288Z,23.30
2023-02-23T15:33:00.429Z,20.83
2023-02-23T15:35:29.187Z,24.37
2023-02-23T15:38:11.310Z,18.70
2023-02-23T15:40:42.467Z,25.80
2023-02-23T15:43:13.185Z,20.80
2023-02-23T15:45:46.742Z,22.83
2023-02-23T15:48:18.355Z,21.60
2023-02-23T15:50:50.192Z,23.23
2023-02-23T15:53:27.468Z,21.10
2023-02-23T15:56:00.774Z,22.70
2023-02-23T15:58:32.278Z,21.57
2023-02-23T16:01:06.167Z,20.83
2023-02-23T16:03:37.090Z,25.07
2023-02-23T16:06:08.674Z,24.17
2023-02-23T16:08:37.158Z,25.63
2023-02-23T16:11:13.208Z,23.13
2023-02-23T16:13:46.588Z,24.67
2023-02-23T16:16:20.210Z,27.23
2023-02-23T16:18:53.794Z,23.40
2023-02-23T16:21:24.823Z,28.00
2023-02-23T16:23:55.447Z,24.73
2023-02-23T16:26:28.894Z,24.97
2023-02-23T16:29:00.789Z,24.47
2023-02-23T16:31:43.479Z,25.47
2023-02-23T16:34:25.861Z,25.23
2023-02-23T16:36:57.745Z,28.43
2023-02-23T16:39:29.399Z,26.77
2023-02-23T16:41:58.577Z,28.57
2023-02-23T16:44:41.341Z,29.43
2023-02-23T16:47:36.197Z,27.87
2023-02-23T16:50:20.183Z,25.33
2023-02-23T16:52:51.855Z,29.97
2023-02-23T16:55:26.473Z,28.53
2023-02-23T16:57:57.548Z,30.83
2023-02-23T17:00:29.244Z,27.17
2023-02-23T17:03:00.952Z,26.87
2023-02-23T17:05:30.126Z,28.07
2023-02-23T17:07:59.010Z,28.33
2023-02-23T17:10:30.828Z,25.77
2023-02-23T17:13:02.422Z,28.63
2023-02-23T17:15:34.882Z,26.47
2023-02-23T17:18:02.828Z,26.20
2023-02-23T17:20:32.604Z,24.97
2023-02-23T17:23:02.345Z,26.10
2023-02-23T17:25:30.592Z,23.57
2023-02-23T17:27:59.151Z,24.10
2023-02-23T17:30:28.283Z,24.07
2023-02-23T17:33:00.634Z,24.50
2023-02-23T17:35:29.054Z,25.00
2023-02-23T17:37:57.114Z,20.60
2023-02-23T17:40:28.548Z,21.67
2023-02-23T17:42:57.709Z,19.30
2023-02-23T17:45:26.532Z,28.67
2023-02-23T17:47:54.811Z,23.40
2023-02-23T17:50:26.359Z,23.03
2023-02-23T17:52:54.893Z,25.53
2023-02-23T17:55:23.741Z,24.37
2023-02-23T17:57:51.793Z,23.13
2023-02-23T18:00:21.346Z,23.23
2023-02-23T18:02:49.331Z,22.70
2023-02-23T18:05:17.511Z,21.93
2023-02-23T18:07:50.322Z,25.50
2023-02-23T18:10:18.550Z,24.77
2023-02-23T18:12:46.547Z,27.27
2023-02-23T18:15:14.554Z,23.00
2023-02-23T18:17:42.531Z,21.00
2023-02-23T18:20:14.847Z,23.23
2023-02-23T18:22:43.081Z,21.03
2023-02-23T18:25:21.210Z,24.37
2023-02-23T18:27:53.874Z,23.23
2023-02-23T18:30:23.374Z,25.23
2023-02-23T18:32:52.166Z,23.27
2023-02-23T18:35:20.443Z,24.33
2023-02-23T18:37:49.664Z,21.20
2023-02-23T18:40:23.651Z,23.90
2023-02-23T18:42:52.146Z,27.20
2023-02-23T18:45:20.552Z,24.87
2023-02-23T18:47:48.743Z,27.57
2023-02-23T18:50:18.998Z,27.73
2023-02-23T18:52:48.221Z,26.93
2023-02-23T18:55:16.493Z,26.97
2023-02-23T18:57:46.703Z,29.00
2023-02-23T19:00:17.177Z,26.30
2023-02-23T19:02:47.152Z,26.37
2023-02-23T19:05:16.189Z,26.57
2023-02-23T19:07:44.676Z,28.63
2023-02-23T19:10:16.138Z,27.37
2023-02-23T19:12:45.374Z,24.63
2023-02-23T19:15:13.573Z,26.07
2023-02-23T19:17:41.677Z,27.63
2023-02-23T19:20:14.107Z,27.73
2023-02-23T19:22:42.601Z,25.90
2023-02-23T19:25:14.405Z,31.07
2023-02-23T19:27:42.726Z,27.97
2023-02-23T19:30:14.752Z,26.03
2023-02-23T19:32:43.975Z,27.83
2023-02-23T19:35:15.683Z,26.37
2023-02-23T19:37:51.785Z,29.63
2023-02-23T19:40:22.853Z,27.30
2023-02-23T19:42:53.093Z,25.70
2023-02-23T19:45:24.833Z,24.77
2023-02-23T19:47:53.425Z,27.10
2023-02-23T19:50:22.001Z,26.03
2023-02-23T19:52:50.425Z,26.20
2023-02-23T19:55:20.488Z,28.37
2023-02-23T19:57:48.698Z,29.77
2023-02-23T20:00:17.483Z,31.57
2023-02-23T20:02:54.719Z,32.10
2023-02-23T20:05:25.596Z,25.40
2023-02-23T20:07:54.824Z,26.57
2023-02-23T20:10:25.744Z,27.50
2023-02-23T20:12:54.057Z,27.00
2023-02-23T20:15:22.010Z,27.47
2023-02-23T20:17:51.675Z,29.63
2023-02-23T20:20:21.556Z,25.37
2023-02-23T20:22:53.157Z,23.97
2023-02-23T20:25:22.816Z,28.10
2023-02-23T20:27:51.659Z,25.30
2023-02-23T20:30:20.186Z,24.03
2023-02-23T20:32:50.584Z,26.53
2023-02-23T20:35:20.448Z,27.57
2023-02-23T20:37:48.358Z,20.90
2023-02-23T20:40:18.487Z,24.80
2023-02-23T20:42:48.735Z,27.20
2023-02-23T20:45:19.314Z,21.73
2023-02-23T20:47:51.812Z,23.40
2023-02-23T20:50:22.477Z,22.37
2023-02-23T20:52:51.104Z,25.20
2023-02-23T20:55:19.978Z,23.50
2023-02-23T20:57:49.450Z,25.13
2023-02-23T21:00:24.100Z,24.53
2023-02-23T21:02:55.295Z,24.93
2023-02-23T21:05:25.619Z,23.47
2023-02-23T21:07:53.847Z,24.77
2023-02-23T21:10:21.751Z,27.70
2023-02-23T21:12:49.731Z,25.83
2023-02-23T21:15:20.629Z,22.27
2023-02-23T21:17:50.396Z,25.43
2023-02-23T21:20:21.099Z,27.60
2023-02-23T21:22:50.949Z,28.30
2023-02-23T21:25:21.896Z,23.53
2023-02-23T21:27:50.423Z,26.23
2023-02-23T21:30:20.521Z,23.23
2023-02-23T21:32:51.392Z,21.87
2023-02-23T21:35:20.848Z,19.17
2023-02-23T21:37:51.302Z,21.27
2023-02-23T21:40:20.719Z,20.43
2023-02-23T21:42:49.559Z,21.63
2023-02-23T21:45:18.567Z,21.00
2023-02-23T21:47:48.164Z,23.23
2023-02-23T21:50:18.957Z,20.53
2023-02-23T21:52:48.773Z,24.17
2023-02-23T21:55:22.376Z,20.73
2023-02-23T21:57:51.341Z,27.80
2023-02-23T22:00:24.616Z,23.47
2023-02-23T22:02:52.788Z,21.33
2023-02-23T22:05:21.453Z,22.50
2023-02-23T22:07:50.806Z,23.67
2023-02-23T22:10:22.123Z,22.43
2023-02-23T22:12:55.991Z,22.37
2023-02-23T22:15:28.153Z,19.80
2023-02-23T22:17:57.164Z,20.27
2023-02-23T22:20:25.354Z,21.67
2023-02-23T22:22:53.342Z,18.80
2023-02-23T22:25:26.090Z,19.77
2023-02-23T22:27:53.984Z,21.63
2023-02-23T22:30:22.650Z,18.70
2023-02-23T22:32:51.035Z,17.50
2023-02-23T22:35:19.338Z,18.87
2023-02-23T22:37:47.590Z,19.43
2023-02-23T22:40:16.688Z,20.13
2023-02-23T22:42:49.000Z,22.23
2023-02-23T22:45:17.354Z,18.37
2023-02-23T22:47:45.572Z,18.80
2023-02-23T22:50:17.697Z,20.17
2023-02-23T22:52:46.782Z,17.50
2023-02-23T22:55:14.657Z,20.47
2023-02-23T22:57:42.594Z,20.07
2023-02-23T23:00:17.430Z,17.37
2023-02-23T23:02:45.521Z,17.33
2023-02-23T23:05:15.292Z,17.50
2023-02-23T23:07:46.282Z,17.87
2023-02-23T23:10:15.425Z,17.93
2023-02-23T23:12:43.404Z,19.07
2023-02-23T23:15:18.886Z,19.80
2023-02-23T23:17:49.148Z,20.03
2023-02-23T23:20:22.783Z,15.33
2023-02-23T23:22:51.008Z,18.13
2023-02-23T23:25:23.042Z,15.63
2023-02-23T23:27:55.335Z,16.77
2023-02-23T23:30:29.117Z,18.57
2023-02-23T23:32:57.645Z,16.17
2023-02-23T23:35:26.896Z,18.57
2023-02-23T23:37:55.003Z,17.67
2023-02-23T23:40:24.801Z,20.87
2023-02-23T23:42:53.058Z,19.63
2023-02-23T23:45:24.051Z,16.27
2023-02-23T23:47:53.580Z,19.00
2023-02-23T23:50:26.639Z,17.50
2023-02-23T23:52:55.303Z,19.07
2023-02-23T23:55:23.546Z,20.17
2023-02-23T23:57:52.113Z,16.80
